sensor_id;sensor_type;location;lat;lon;timestamp;pressure;altitude;pressure_sealevel;temperature;humidity
77288;BME280;66345;42.694;23.346;2023-05-10T00:02:03;95802.50;;;8.77;87.67
77288;BME280;66345;42.694;23.346;2023-05-10T00:04:28;95797.03;;;8.78;88.09
77288;BME280;66345;42.694;23.346;2023-05-10T00:06:54;95791.38;;;8.81;88.73
77288;BME280;66345;42.694;23.346;2023-05-10T00:09:19;95798.66;;;8.79;88.33
77288;BME280;66345;42.694;23.346;2023-05-10T00:11:45;95793.41;;;8.71;87.62
77288;BME280;66345;42.694;23.346;2023-05-10T00:14:11;95792.44;;;8.64;88.50
77288;BME280;66345;42.694;23.346;2023-05-10T00:16:36;95789.13;;;8.62;88.41
77288;BME280;66345;42.694;23.346;2023-05-10T00:19:02;95786.16;;;8.57;87.84
77288;BME280;66345;42.694;23.346;2023-05-10T00:21:27;95788.81;;;8.57;88.24
77288;BME280;66345;42.694;23.346;2023-05-10T00:23:53;95786.00;;;8.50;87.97
77288;BME280;66345;42.694;23.346;2023-05-10T00:26:19;95792.28;;;8.49;88.46
77288;BME280;66345;42.694;23.346;2023-05-10T00:28:45;95789.97;;;8.46;88.24
77288;BME280;66345;42.694;23.346;2023-05-10T00:31:10;95793.44;;;8.39;88.14
77288;BME280;66345;42.694;23.346;2023-05-10T00:33:35;95786.50;;;8.38;88.49
77288;BME280;66345;42.694;23.346;2023-05-10T00:36:01;95784.88;;;8.37;88.45
77288;BME280;66345;42.694;23.346;2023-05-10T00:38:26;95783.72;;;8.39;88.18
77288;BME280;66345;42.694;23.346;2023-05-10T00:40:51;95794.75;;;8.34;88.23
77288;BME280;66345;42.694;23.346;2023-05-10T00:43:17;95786.81;;;8.34;88.12
77288;BME280;66345;42.694;23.346;2023-05-10T00:45:43;95780.88;;;8.32;88.27
77288;BME280;66345;42.694;23.346;2023-05-10T00:48:08;95781.03;;;8.31;87.76
77288;BME280;66345;42.694;23.346;2023-05-10T00:50:34;95769.31;;;8.25;87.94
77288;BME280;66345;42.694;23.346;2023-05-10T00:53:00;95780.56;;;8.27;88.81
77288;BME280;66345;42.694;23.346;2023-05-10T00:55:26;95770.31;;;8.24;88.15
77288;BME280;66345;42.694;23.346;2023-05-10T00:57:53;95771.97;;;8.25;87.78
77288;BME280;66345;42.694;23.346;2023-05-10T01:00:18;95769.16;;;8.27;88.12
77288;BME280;66345;42.694;23.346;2023-05-10T01:02:45;95774.09;;;8.22;88.03
77288;BME280;66345;42.694;23.346;2023-05-10T01:05:11;95770.47;;;8.23;88.40
77288;BME280;66345;42.694;23.346;2023-05-10T01:07:37;95766.19;;;8.22;88.06
77288;BME280;66345;42.694;23.346;2023-05-10T01:10:03;95758.78;;;8.17;88.00
77288;BME280;66345;42.694;23.346;2023-05-10T01:12:28;95766.19;;;8.22;88.17
77288;BME280;66345;42.694;23.346;2023-05-10T01:14:54;95772.63;;;8.27;88.15
77288;BME280;66345;42.694;23.346;2023-05-10T01:17:21;95765.19;;;8.23;86.60
77288;BME280;66345;42.694;23.346;2023-05-10T01:19:47;95765.53;;;8.20;85.95
77288;BME280;66345;42.694;23.346;2023-05-10T01:22:27;95766.34;;;8.20;86.62
77288;BME280;66345;42.694;23.346;2023-05-10T01:30:35;95759.41;;;8.19;84.70
77288;BME280;66345;42.694;23.346;2023-05-10T01:36:13;95756.44;;;8.14;85.05
77288;BME280;66345;42.694;23.346;2023-05-10T01:38:51;95753.63;;;8.07;85.17
77288;BME280;66345;42.694;23.346;2023-05-10T01:41:36;95756.13;;;8.09;85.72
77288;BME280;66345;42.694;23.346;2023-05-10T01:46:42;95749.69;;;8.03;85.06
77288;BME280;66345;42.694;23.346;2023-05-10T01:49:11;95746.88;;;8.05;85.72
77288;BME280;66345;42.694;23.346;2023-05-10T01:51:43;95749.53;;;8.05;85.37
77288;BME280;66345;42.694;23.346;2023-05-10T01:54:11;95741.41;;;8.06;85.27
77288;BME280;66345;42.694;23.346;2023-05-10T01:56:39;95738.47;;;8.10;84.85
77288;BME280;66345;42.694;23.346;2023-05-10T01:59:11;95745.56;;;8.09;84.96
77288;BME280;66345;42.694;23.346;2023-05-10T02:01:38;95749.16;;;8.08;84.20
77288;BME280;66345;42.694;23.346;2023-05-10T02:04:06;95742.25;;;7.99;84.02
77288;BME280;66345;42.694;23.346;2023-05-10T02:06:32;95748.03;;;8.02;84.92
77288;BME280;66345;42.694;23.346;2023-05-10T02:09:00;95752.97;;;8.05;83.73
77288;BME280;66345;42.694;23.346;2023-05-10T02:11:27;95750.69;;;8.02;84.59
77288;BME280;66345;42.694;23.346;2023-05-10T02:13:55;95750.81;;;8.01;84.46
77288;BME280;66345;42.694;23.346;2023-05-10T02:16:24;95752.34;;;8.03;84.24
77288;BME280;66345;42.694;23.346;2023-05-10T02:18:51;95748.06;;;7.94;83.90
77288;BME280;66345;42.694;23.346;2023-05-10T02:21:19;95752.34;;;7.95;84.86
77288;BME280;66345;42.694;23.346;2023-05-10T02:23:46;95758.75;;;8.01;84.19
77288;BME280;66345;42.694;23.346;2023-05-10T02:26:13;95756.78;;;8.03;84.16
77288;BME280;66345;42.694;23.346;2023-05-10T02:28:42;95756.97;;;8.01;84.50
77288;BME280;66345;42.694;23.346;2023-05-10T02:31:09;95750.69;;;8.02;85.17
77288;BME280;66345;42.694;23.346;2023-05-10T02:33:38;95754.63;;;7.98;83.72
77288;BME280;66345;42.694;23.346;2023-05-10T02:36:04;95759.59;;;7.93;84.88
77288;BME280;66345;42.694;23.346;2023-05-10T02:38:32;95747.53;;;7.83;83.20
77288;BME280;66345;42.694;23.346;2023-05-10T02:40:59;95760.91;;;7.81;82.84
77288;BME280;66345;42.694;23.346;2023-05-10T02:43:28;95758.59;;;7.78;82.81
77288;BME280;66345;42.694;23.346;2023-05-10T02:45:55;95761.91;;;7.72;81.96
77288;BME280;66345;42.694;23.346;2023-05-10T02:48:20;95756.78;;;7.62;80.46
77288;BME280;66345;42.694;23.346;2023-05-10T02:50:47;95753.31;;;7.54;80.34
77288;BME280;66345;42.694;23.346;2023-05-10T02:53:22;95752.00;;;7.58;79.37
77288;BME280;66345;42.694;23.346;2023-05-10T02:55:50;95750.50;;;7.55;79.58
77288;BME280;66345;42.694;23.346;2023-05-10T02:58:17;95750.16;;;7.42;79.98
77288;BME280;66345;42.694;23.346;2023-05-10T03:00:44;95743.06;;;7.34;79.82
77288;BME280;66345;42.694;23.346;2023-05-10T03:03:11;95747.00;;;7.30;79.89
77288;BME280;66345;42.694;23.346;2023-05-10T03:05:36;95748.66;;;7.31;79.10
77288;BME280;66345;42.694;23.346;2023-05-10T03:08:02;95747.34;;;7.27;78.81
77288;BME280;66345;42.694;23.346;2023-05-10T03:10:30;95757.19;;;7.25;78.51
77288;BME280;66345;42.694;23.346;2023-05-10T03:18:18;95754.09;;;7.30;79.31
77288;BME280;66345;42.694;23.346;2023-05-10T03:20:48;95761.19;;;7.29;78.15
77288;BME280;66345;42.694;23.346;2023-05-10T03:23:21;95766.47;;;7.29;77.78
77288;BME280;66345;42.694;23.346;2023-05-10T03:25:48;95752.78;;;7.26;77.38
77288;BME280;66345;42.694;23.346;2023-05-10T03:28:16;95772.22;;;7.24;77.11
77288;BME280;66345;42.694;23.346;2023-05-10T03:30:43;95761.53;;;7.26;77.07
77288;BME280;66345;42.694;23.346;2023-05-10T03:33:09;95769.09;;;7.29;77.15
77288;BME280;66345;42.694;23.346;2023-05-10T03:35:35;95759.19;;;7.31;76.33
77288;BME280;66345;42.694;23.346;2023-05-10T03:38:01;95764.00;;;7.36;76.57
77288;BME280;66345;42.694;23.346;2023-05-10T03:40:27;95763.81;;;7.21;76.79
77288;BME280;66345;42.694;23.346;2023-05-10T03:42:54;95764.28;;;7.24;77.46
77288;BME280;66345;42.694;23.346;2023-05-10T03:45:20;95780.81;;;7.27;75.70
77288;BME280;66345;42.694;23.346;2023-05-10T03:47:46;95766.78;;;7.26;76.53
77288;BME280;66345;42.694;23.346;2023-05-10T03:50:11;95770.25;;;7.27;75.38
77288;BME280;66345;42.694;23.346;2023-05-10T03:52:37;95771.75;;;7.29;75.64
77288;BME280;66345;42.694;23.346;2023-05-10T03:55:05;95778.84;;;7.29;75.32
77288;BME280;66345;42.694;23.346;2023-05-10T03:57:30;95775.84;;;7.23;75.49
77288;BME280;66345;42.694;23.346;2023-05-10T03:59:56;95778.97;;;7.19;75.48
77288;BME280;66345;42.694;23.346;2023-05-10T04:02:21;95785.91;;;7.20;76.15
77288;BME280;66345;42.694;23.346;2023-05-10T04:04:46;95779.28;;;7.16;75.89
77288;BME280;66345;42.694;23.346;2023-05-10T04:07:13;95771.91;;;7.28;76.17
77288;BME280;66345;42.694;23.346;2023-05-10T04:09:39;95790.69;;;7.24;77.12
77288;BME280;66345;42.694;23.346;2023-05-10T04:12:04;95784.56;;;7.16;76.92
77288;BME280;66345;42.694;23.346;2023-05-10T04:14:31;95776.34;;;7.19;76.93
77288;BME280;66345;42.694;23.346;2023-05-10T04:16:57;95789.22;;;7.22;76.80
77288;BME280;66345;42.694;23.346;2023-05-10T04:19:22;95793.16;;;7.18;77.82
77288;BME280;66345;42.694;23.346;2023-05-10T04:21:48;95793.00;;;7.19;77.71
77288;BME280;66345;42.694;23.346;2023-05-10T04:24:13;95780.63;;;7.20;76.61
77288;BME280;66345;42.694;23.346;2023-05-10T04:26:39;95781.63;;;7.19;76.29
77288;BME280;66345;42.694;23.346;2023-05-10T04:29:04;95789.84;;;7.16;76.39
77288;BME280;66345;42.694;23.346;2023-05-10T04:31:30;95789.53;;;7.19;76.04
77288;BME280;66345;42.694;23.346;2023-05-10T04:33:55;95784.25;;;7.19;76.29
77288;BME280;66345;42.694;23.346;2023-05-10T04:36:20;95794.16;;;7.25;76.31
77288;BME280;66345;42.694;23.346;2023-05-10T04:38:46;95793.81;;;7.20;76.42
77288;BME280;66345;42.694;23.346;2023-05-10T04:41:11;95789.22;;;7.22;76.80
77288;BME280;66345;42.694;23.346;2023-05-10T04:43:37;95789.22;;;7.22;76.51
77288;BME280;66345;42.694;23.346;2023-05-10T04:46:04;95786.41;;;7.23;75.90
77288;BME280;66345;42.694;23.346;2023-05-10T04:48:29;95789.56;;;7.27;76.05
77288;BME280;66345;42.694;23.346;2023-05-10T04:50:55;95795.50;;;7.29;75.30
77288;BME280;66345;42.694;23.346;2023-05-10T04:53:20;95793.88;;;7.36;76.08
77288;BME280;66345;42.694;23.346;2023-05-10T04:55:46;95774.56;;;7.28;75.43
77288;BME280;66345;42.694;23.346;2023-05-10T04:58:12;95792.53;;;7.32;75.98
77288;BME280;66345;42.694;23.346;2023-05-10T05:00:37;95787.25;;;7.40;75.95
77288;BME280;66345;42.694;23.346;2023-05-10T05:03:03;95804.13;;;7.56;75.72
77288;BME280;66345;42.694;23.346;2023-05-10T05:05:28;95791.59;;;7.49;75.67
77288;BME280;66345;42.694;23.346;2023-05-10T05:07:53;95805.13;;;7.55;75.53
77288;BME280;66345;42.694;23.346;2023-05-10T05:10:19;95791.44;;;7.51;76.01
77288;BME280;66345;42.694;23.346;2023-05-10T05:12:44;95803.16;;;7.57;75.27
77288;BME280;66345;42.694;23.346;2023-05-10T05:15:10;95794.75;;;7.69;74.51
77288;BME280;66345;42.694;23.346;2023-05-10T05:17:36;95796.56;;;7.69;75.24
77288;BME280;66345;42.694;23.346;2023-05-10T05:20:01;95805.16;;;7.71;74.48
77288;BME280;66345;42.694;23.346;2023-05-10T05:22:27;95794.28;;;7.74;74.42
77288;BME280;66345;42.694;23.346;2023-05-10T05:24:57;95800.22;;;7.84;74.69
77288;BME280;66345;42.694;23.346;2023-05-10T05:27:23;95807.81;;;7.79;74.29
77288;BME280;66345;42.694;23.346;2023-05-10T05:29:55;95797.38;;;7.69;75.07
77288;BME280;66345;42.694;23.346;2023-05-10T05:32:21;95794.91;;;7.76;75.24
77288;BME280;66345;42.694;23.346;2023-05-10T05:34:47;95804.50;;;7.77;74.99
77288;BME280;66345;42.694;23.346;2023-05-10T05:37:17;95810.13;;;7.74;75.88
77288;BME280;66345;42.694;23.346;2023-05-10T05:39:43;95809.94;;;7.84;76.26
77288;BME280;66345;42.694;23.346;2023-05-10T05:42:10;95816.56;;;7.79;74.86
77288;BME280;66345;42.694;23.346;2023-05-10T05:44:35;95812.94;;;7.89;76.21
77288;BME280;66345;42.694;23.346;2023-05-10T05:47:01;95816.69;;;7.70;75.45
77288;BME280;66345;42.694;23.346;2023-05-10T05:49:26;95807.47;;;7.74;76.31
77288;BME280;66345;42.694;23.346;2023-05-10T05:51:52;95814.94;;;7.78;75.84
77288;BME280;66345;42.694;23.346;2023-05-10T05:54:17;95816.56;;;7.79;75.96
77288;BME280;66345;42.694;23.346;2023-05-10T05:56:42;95818.53;;;7.77;76.23
77288;BME280;66345;42.694;23.346;2023-05-10T05:59:09;95814.94;;;7.78;76.58
77288;BME280;66345;42.694;23.346;2023-05-10T06:01:35;95829.25;;;7.76;76.49
77288;BME280;66345;42.694;23.346;2023-05-10T06:04:00;95833.72;;;7.67;76.20
77288;BME280;66345;42.694;23.346;2023-05-10T06:06:26;95830.25;;;7.67;76.44
77288;BME280;66345;42.694;23.346;2023-05-10T06:08:52;95825.13;;;7.73;75.98
77288;BME280;66345;42.694;23.346;2023-05-10T06:11:17;95825.97;;;7.74;75.73
77288;BME280;66345;42.694;23.346;2023-05-10T06:13:44;95824.66;;;7.86;76.23
77288;BME280;66345;42.694;23.346;2023-05-10T06:16:09;95831.91;;;7.84;75.27
77288;BME280;66345;42.694;23.346;2023-05-10T06:18:35;95827.63;;;7.75;76.05
77288;BME280;66345;42.694;23.346;2023-05-10T06:21:01;95829.44;;;7.74;76.63
77288;BME280;66345;42.694;23.346;2023-05-10T06:23:26;95827.28;;;7.78;76.53
77288;BME280;66345;42.694;23.346;2023-05-10T06:25:52;95841.16;;;7.80;75.47
77288;BME280;66345;42.694;23.346;2023-05-10T06:28:17;95836.19;;;7.85;74.73
77288;BME280;66345;42.694;23.346;2023-05-10T06:30:43;95825.78;;;7.75;75.24
77288;BME280;66345;42.694;23.346;2023-05-10T06:33:08;95842.47;;;7.84;76.17
77288;BME280;66345;42.694;23.346;2023-05-10T06:35:34;95841.50;;;7.85;75.47
77288;BME280;66345;42.694;23.346;2023-05-10T06:37:59;95841.19;;;7.96;75.03
77288;BME280;66345;42.694;23.346;2023-05-10T06:40:25;95829.13;;;7.94;74.50
77288;BME280;66345;42.694;23.346;2023-05-10T06:42:50;95841.19;;;8.04;74.11
77288;BME280;66345;42.694;23.346;2023-05-10T06:45:16;95839.84;;;8.00;72.90
77288;BME280;66345;42.694;23.346;2023-05-10T06:47:42;95836.25;;;8.01;73.05
77288;BME280;66345;42.694;23.346;2023-05-10T06:50:09;95836.56;;;8.06;72.41
77288;BME280;66345;42.694;23.346;2023-05-10T06:52:34;95827.31;;;8.11;72.51
77288;BME280;66345;42.694;23.346;2023-05-10T06:55:00;95831.44;;;8.13;72.06
77288;BME280;66345;42.694;23.346;2023-05-10T06:57:26;95837.25;;;8.17;72.86
77288;BME280;66345;42.694;23.346;2023-05-10T06:59:51;95845.47;;;8.14;72.66
77288;BME280;66345;42.694;23.346;2023-05-10T07:02:17;95847.47;;;8.20;71.28
77288;BME280;66345;42.694;23.346;2023-05-10T07:04:42;95844.19;;;8.18;71.76
77288;BME280;66345;42.694;23.346;2023-05-10T07:07:08;95848.13;;;8.30;71.42
77288;BME280;66345;42.694;23.346;2023-05-10T07:09:34;95847.81;;;8.33;71.57
77288;BME280;66345;42.694;23.346;2023-05-10T07:11:59;95844.34;;;8.32;71.88
77288;BME280;66345;42.694;23.346;2023-05-10T07:14:25;95839.72;;;8.34;71.71
77288;BME280;66345;42.694;23.346;2023-05-10T07:16:51;95841.72;;;8.41;70.23
77288;BME280;66345;42.694;23.346;2023-05-10T07:19:17;95851.78;;;8.37;70.82
77288;BME280;66345;42.694;23.346;2023-05-10T07:21:42;95841.22;;;8.37;70.29
77288;BME280;66345;42.694;23.346;2023-05-10T07:24:08;95842.03;;;8.46;69.59
77288;BME280;66345;42.694;23.346;2023-05-10T07:26:34;95838.41;;;8.63;69.40
77288;BME280;66345;42.694;23.346;2023-05-10T07:29:00;95852.25;;;8.81;69.35
77288;BME280;66345;42.694;23.346;2023-05-10T07:31:25;95854.22;;;8.79;69.66
77288;BME280;66345;42.694;23.346;2023-05-10T07:33:50;95850.44;;;8.66;68.85
77288;BME280;66345;42.694;23.346;2023-05-10T07:36:16;95855.94;;;8.56;68.42
77288;BME280;66345;42.694;23.346;2023-05-10T07:38:41;95847.13;;;8.72;68.99
77288;BME280;66345;42.694;23.346;2023-05-10T07:41:07;95859.69;;;8.78;68.37
77288;BME280;66345;42.694;23.346;2023-05-10T07:43:32;95861.16;;;8.88;69.47
77288;BME280;66345;42.694;23.346;2023-05-10T07:45:58;95860.97;;;8.90;69.80
77288;BME280;66345;42.694;23.346;2023-05-10T07:48:25;95862.97;;;8.88;68.63
77288;BME280;66345;42.694;23.346;2023-05-10T07:50:50;95837.47;;;9.03;68.71
77288;BME280;66345;42.694;23.346;2023-05-10T07:53:15;95854.00;;;8.97;68.23
77288;BME280;66345;42.694;23.346;2023-05-10T07:55:41;95868.63;;;8.77;68.83
77288;BME280;66345;42.694;23.346;2023-05-10T07:58:07;95859.81;;;9.01;68.33
77288;BME280;66345;42.694;23.346;2023-05-10T08:00:32;95868.06;;;8.98;67.95
77288;BME280;66345;42.694;23.346;2023-05-10T08:02:58;95871.72;;;8.97;68.38
77288;BME280;66345;42.694;23.346;2023-05-10T08:05:23;95864.56;;;9.05;67.89
77288;BME280;66345;42.694;23.346;2023-05-10T08:07:48;95872.72;;;8.96;67.26
77288;BME280;66345;42.694;23.346;2023-05-10T08:10:14;95876.69;;;8.92;67.18
77288;BME280;66345;42.694;23.346;2023-05-10T08:12:39;95877.19;;;8.95;67.56
77288;BME280;66345;42.694;23.346;2023-05-10T08:15:06;95868.56;;;9.09;67.01
77288;BME280;66345;42.694;23.346;2023-05-10T08:17:32;95882.78;;;9.08;66.97
77288;BME280;66345;42.694;23.346;2023-05-10T08:19:57;95870.72;;;8.98;67.54
77288;BME280;66345;42.694;23.346;2023-05-10T08:22:23;95868.06;;;9.06;68.42
77288;BME280;66345;42.694;23.346;2023-05-10T08:24:48;95867.38;;;9.12;68.47
77288;BME280;66345;42.694;23.346;2023-05-10T08:27:13;95861.59;;;9.16;67.80
77288;BME280;66345;42.694;23.346;2023-05-10T08:29:39;95870.38;;;9.09;68.04
77288;BME280;66345;42.694;23.346;2023-05-10T08:32:04;95871.00;;;9.19;67.37
77288;BME280;66345;42.694;23.346;2023-05-10T08:34:30;95880.47;;;9.05;68.36
77288;BME280;66345;42.694;23.346;2023-05-10T08:36:57;95881.97;;;9.08;69.69
77288;BME280;66345;42.694;23.346;2023-05-10T08:39:23;95868.03;;;9.14;69.88
77288;BME280;66345;42.694;23.346;2023-05-10T08:41:51;95876.28;;;9.19;70.23
77288;BME280;66345;42.694;23.346;2023-05-10T08:44:16;95870.53;;;9.15;69.81
77288;BME280;66345;42.694;23.346;2023-05-10T08:46:46;95870.00;;;9.20;71.39
77288;BME280;66345;42.694;23.346;2023-05-10T08:49:13;95867.69;;;9.17;70.27
77288;BME280;66345;42.694;23.346;2023-05-10T08:51:44;95876.94;;;9.21;70.09
77288;BME280;66345;42.694;23.346;2023-05-10T08:54:12;95872.31;;;9.23;70.11
77288;BME280;66345;42.694;23.346;2023-05-10T08:56:38;95870.53;;;9.55;70.32
77288;BME280;66345;42.694;23.346;2023-05-10T08:59:04;95870.66;;;9.61;69.37
77288;BME280;66345;42.694;23.346;2023-05-10T09:01:31;95886.38;;;9.63;69.54
77288;BME280;66345;42.694;23.346;2023-05-10T09:03:57;95867.56;;;9.50;68.55
77288;BME280;66345;42.694;23.346;2023-05-10T09:06:23;95863.38;;;9.63;69.45
77288;BME280;66345;42.694;23.346;2023-05-10T09:08:49;95865.22;;;9.86;67.91
77288;BME280;66345;42.694;23.346;2023-05-10T09:11:16;95863.63;;;9.77;67.92
77288;BME280;66345;42.694;23.346;2023-05-10T09:13:41;95867.13;;;10.00;67.72
77288;BME280;66345;42.694;23.346;2023-05-10T09:16:07;95860.31;;;9.74;67.08
77288;BME280;66345;42.694;23.346;2023-05-10T09:18:32;95860.84;;;9.70;68.04
77288;BME280;66345;42.694;23.346;2023-05-10T09:20:58;95865.38;;;9.61;67.88
77288;BME280;66345;42.694;23.346;2023-05-10T09:23:23;95872.13;;;9.33;67.85
77288;BME280;66345;42.694;23.346;2023-05-10T09:26:06;95859.97;;;9.47;69.42
77288;BME280;66345;42.694;23.346;2023-05-10T09:28:33;95861.94;;;9.84;68.65
77288;BME280;66345;42.694;23.346;2023-05-10T09:31:00;95865.56;;;9.52;68.56
77288;BME280;66345;42.694;23.346;2023-05-10T09:33:26;95873.44;;;9.29;69.68
77288;BME280;66345;42.694;23.346;2023-05-10T09:35:51;95862.03;;;9.28;69.71
77288;BME280;66345;42.694;23.346;2023-05-10T09:38:17;95865.81;;;9.34;68.65
77288;BME280;66345;42.694;23.346;2023-05-10T09:40:51;95872.72;;;9.43;67.96
77288;BME280;66345;42.694;23.346;2023-05-10T09:43:20;95851.66;;;9.50;67.22
77288;BME280;66345;42.694;23.346;2023-05-10T09:45:48;95853.81;;;9.54;68.11
77288;BME280;66345;42.694;23.346;2023-05-10T09:48:14;95857.09;;;9.56;66.50
77288;BME280;66345;42.694;23.346;2023-05-10T09:50:40;95842.34;;;9.62;67.37
77288;BME280;66345;42.694;23.346;2023-05-10T09:53:06;95846.25;;;9.74;65.22
77288;BME280;66345;42.694;23.346;2023-05-10T09:58:04;95844.31;;;9.68;66.52
77288;BME280;66345;42.694;23.346;2023-05-10T10:00:36;95843.97;;;9.94;65.63
77288;BME280;66345;42.694;23.346;2023-05-10T10:03:02;95832.84;;;9.98;65.59
77288;BME280;66345;42.694;23.346;2023-05-10T10:05:33;95843.13;;;10.24;64.17
77288;BME280;66345;42.694;23.346;2023-05-10T10:08:00;95844.34;;;9.91;64.87
77288;BME280;66345;42.694;23.346;2023-05-10T10:10:26;95837.28;;;10.06;64.28
77288;BME280;66345;42.694;23.346;2023-05-10T10:12:53;95836.22;;;10.38;63.65
77288;BME280;66345;42.694;23.346;2023-05-10T10:15:22;95824.84;;;10.30;64.27
77288;BME280;66345;42.694;23.346;2023-05-10T10:17:49;95830.06;;;10.15;64.16
77288;BME280;66345;42.694;23.346;2023-05-10T10:20:16;95818.03;;;10.04;63.91
77288;BME280;66345;42.694;23.346;2023-05-10T10:22:41;95814.25;;;10.30;64.59
77288;BME280;66345;42.694;23.346;2023-05-10T10:25:10;95815.78;;;10.62;64.25
77288;BME280;66345;42.694;23.346;2023-05-10T10:27:47;95829.81;;;11.00;62.90
77288;BME280;66345;42.694;23.346;2023-05-10T10:30:31;95813.50;;;11.03;61.85
77288;BME280;66345;42.694;23.346;2023-05-10T10:35:32;95819.19;;;11.00;61.29
77288;BME280;66345;42.694;23.346;2023-05-10T10:37:58;95821.84;;;11.15;62.09
77288;BME280;66345;42.694;23.346;2023-05-10T10:42:54;95816.72;;;10.83;62.32
77288;BME280;66345;42.694;23.346;2023-05-10T10:45:21;95817.16;;;10.72;63.28
77288;BME280;66345;42.694;23.346;2023-05-10T10:47:47;95817.44;;;10.92;62.32
77288;BME280;66345;42.694;23.346;2023-05-10T10:50:12;95824.69;;;10.98;62.88
77288;BME280;66345;42.694;23.346;2023-05-10T10:52:39;95817.66;;;11.05;62.10
77288;BME280;66345;42.694;23.346;2023-05-10T11:00:25;95820.41;;;11.63;61.96
77288;BME280;66345;42.694;23.346;2023-05-10T11:03:12;95816.56;;;11.80;60.49
77288;BME280;66345;42.694;23.346;2023-05-10T11:05:50;95821.19;;;11.42;61.21
77288;BME280;66345;42.694;23.346;2023-05-10T11:08:27;95822.56;;;11.23;61.56
77288;BME280;66345;42.694;23.346;2023-05-10T11:11:04;95814.66;;;11.45;60.49
77288;BME280;66345;42.694;23.346;2023-05-10T11:13:39;95818.47;;;11.86;61.16
77288;BME280;66345;42.694;23.346;2023-05-10T11:18:37;95820.66;;;11.17;62.03
77288;BME280;66345;42.694;23.346;2023-05-10T11:21:03;95812.97;;;11.22;62.31
77288;BME280;66345;42.694;23.346;2023-05-10T11:23:50;95809.63;;;11.50;62.13
77288;BME280;66345;42.694;23.346;2023-05-10T11:26:16;95830.63;;;11.96;60.55
77288;BME280;66345;42.694;23.346;2023-05-10T11:28:48;95822.44;;;11.61;60.93
77288;BME280;66345;42.694;23.346;2023-05-10T11:31:15;95817.25;;;11.08;62.84
77288;BME280;66345;42.694;23.346;2023-05-10T11:33:50;95816.56;;;11.80;61.59
77288;BME280;66345;42.694;23.346;2023-05-10T11:36:33;95816.50;;;12.16;60.36
77288;BME280;66345;42.694;23.346;2023-05-10T11:38:58;95819.56;;;11.62;61.41
77288;BME280;66345;42.694;23.346;2023-05-10T11:41:26;95825.09;;;11.46;61.64
77288;BME280;66345;42.694;23.346;2023-05-10T11:43:55;95813.03;;;11.80;61.90
77288;BME280;66345;42.694;23.346;2023-05-10T11:46:24;95815.81;;;11.86;60.38
77288;BME280;66345;42.694;23.346;2023-05-10T11:49:01;95813.41;;;12.13;59.95
77288;BME280;66345;42.694;23.346;2023-05-10T11:51:29;95821.81;;;12.16;59.39
77288;BME280;66345;42.694;23.346;2023-05-10T11:53:56;95813.34;;;12.06;60.03
77288;BME280;66345;42.694;23.346;2023-05-10T11:56:22;95816.50;;;12.16;60.58
77288;BME280;66345;42.694;23.346;2023-05-10T11:58:56;95812.97;;;11.88;60.95
77288;BME280;66345;42.694;23.346;2023-05-10T12:01:22;95816.81;;;12.28;59.88
77288;BME280;66345;42.694;23.346;2023-05-10T12:03:53;95805.59;;;12.33;60.16
77288;BME280;66345;42.694;23.346;2023-05-10T12:06:20;95799.63;;;12.52;59.30
77288;BME280;66345;42.694;23.346;2023-05-10T12:08:47;95809.72;;;12.35;59.42
77288;BME280;66345;42.694;23.346;2023-05-10T12:11:13;95813.78;;;11.74;61.15
77288;BME280;66345;42.694;23.346;2023-05-10T12:13:41;95811.38;;;11.43;61.83
77288;BME280;66345;42.694;23.346;2023-05-10T12:16:18;95801.00;;;11.48;62.15
77288;BME280;66345;42.694;23.346;2023-05-10T12:18:44;95809.19;;;11.31;63.08
77288;BME280;66345;42.694;23.346;2023-05-10T12:21:12;95801.50;;;11.36;63.38
77288;BME280;66345;42.694;23.346;2023-05-10T12:23:39;95803.53;;;11.20;63.28
77288;BME280;66345;42.694;23.346;2023-05-10T12:26:05;95804.94;;;11.52;61.87
77288;BME280;66345;42.694;23.346;2023-05-10T12:28:32;95800.34;;;11.60;62.46
77288;BME280;66345;42.694;23.346;2023-05-10T12:30:59;95792.88;;;11.49;62.30
77288;BME280;66345;42.694;23.346;2023-05-10T12:33:25;95799.69;;;11.73;62.08
77288;BME280;66345;42.694;23.346;2023-05-10T12:35:52;95798.19;;;11.85;60.67
77288;BME280;66345;42.694;23.346;2023-05-10T12:40:59;95791.44;;;11.68;61.46
77288;BME280;66345;42.694;23.346;2023-05-10T12:43:24;95783.41;;;11.47;62.16
77288;BME280;66345;42.694;23.346;2023-05-10T12:45:50;95779.84;;;11.39;62.57
77288;BME280;66345;42.694;23.346;2023-05-10T12:48:16;95783.53;;;11.38;62.18
77288;BME280;66345;42.694;23.346;2023-05-10T12:50:42;95781.19;;;11.65;61.79
77288;BME280;66345;42.694;23.346;2023-05-10T12:53:07;95778.47;;;11.44;61.75
77288;BME280;66345;42.694;23.346;2023-05-10T12:55:32;95776.94;;;11.34;62.23
77288;BME280;66345;42.694;23.346;2023-05-10T12:57:58;95777.59;;;11.36;62.20
77288;BME280;66345;42.694;23.346;2023-05-10T13:00:25;95769.06;;;11.99;60.75
77288;BME280;66345;42.694;23.346;2023-05-10T13:02:50;95778.69;;;12.00;60.71
77288;BME280;66345;42.694;23.346;2023-05-10T13:05:15;95772.59;;;12.27;60.23
77288;BME280;66345;42.694;23.346;2023-05-10T13:07:41;95766.41;;;11.99;60.07
77288;BME280;66345;42.694;23.346;2023-05-10T13:10:09;95770.28;;;12.17;60.14
77288;BME280;66345;42.694;23.346;2023-05-10T13:12:34;95762.78;;;11.85;60.71
77288;BME280;66345;42.694;23.346;2023-05-10T13:15:00;95775.66;;;11.66;61.32
77288;BME280;66345;42.694;23.346;2023-05-10T13:17:26;95767.59;;;11.38;62.56
77288;BME280;66345;42.694;23.346;2023-05-10T13:19:51;95762.78;;;11.13;63.09
77288;BME280;66345;42.694;23.346;2023-05-10T13:22:17;95758.44;;;11.62;62.31
77288;BME280;66345;42.694;23.346;2023-05-10T13:24:42;95754.00;;;11.84;61.59
77288;BME280;66345;42.694;23.346;2023-05-10T13:27:08;95752.53;;;11.46;62.50
77288;BME280;66345;42.694;23.346;2023-05-10T13:29:33;95751.47;;;11.61;61.40
77288;BME280;66345;42.694;23.346;2023-05-10T13:31:59;95754.06;;;11.55;62.06